Minerva Grace — SVBN7 — position and weather

sailwx.info

Track history (hours):
 
Tides and Currents Weather Stations Pressure Air Temp Water Temp Dewpoint Dewpoint Depression Visibility Wind Speed Wind Dir Waves Ship Positions

Minerva Grace

Last reported at 2016-Dec-04 04:12 UTC. Time now 2016-Dec-10 01:14 UTC.
Position N 29°55' W 089°56'.

Length 183 m; draft 10.1 m.

Type: Ship (hazmat cat A). MMSI: 215925000.

Date/timePositionNaut miles runAvg speedWind from/ knotsBaromVisibWave heightAir tempDewpointWater temp
2016-Dec-04 04:12N 29°55' W 089°56'6 8.4
2016-Dec-04 03:27N 29°56' W 090°04'8 8.9
2016-Dec-04 02:34N 29°56' W 090°13'  
2016-Dec-01 13:33N 29°58' W 090°18'0 0.2
2016-Dec-01 11:32N 29°58' W 090°18'0 0.0
2016-Dec-01 10:26N 29°58' W 090°18'0 0.0
2016-Dec-01 09:29N 29°58' W 090°18'0 0.0
2016-Dec-01 08:14N 29°58' W 090°18'0 0.0
2016-Dec-01 07:32N 29°58' W 090°18'0 0.0
2016-Dec-01 06:32N 29°58' W 090°18'0 0.0
2016-Dec-01 05:26N 29°58' W 090°18'0 0.0
2016-Dec-01 04:32N 29°58' W 090°18'0 0.0
2016-Dec-01 03:32N 29°58' W 090°18'0 0.0
2016-Dec-01 02:32N 29°58' W 090°18'0 0.0
2016-Dec-01 01:32N 29°58' W 090°18'0 0.0
2016-Dec-01 00:14N 29°58' W 090°18'0 0.1
2016-Nov-30 23:33N 29°58' W 090°18'6 6.1
2016-Nov-30 22:33N 29°56' W 090°11'7 5.9
2016-Nov-30 21:27N 29°57' W 090°03'  
Track history (hours):
 
Tides and Currents Weather Stations Pressure Air Temp Water Temp Dewpoint Dewpoint Depression Visibility Wind Speed Wind Dir Waves Ship Positions

Minerva Grace

Last reported at 2016-Dec-04 04:12 UTC. Time now 2016-Dec-10 01:14 UTC.
Position N 29°55' W 089°56'.

Length 183 m; draft 10.1 m.

Type: Ship (hazmat cat A). MMSI: 215925000.

Date/timePositionNaut miles runAvg speedWind from/ knotsBaromVisibWave heightAir tempDewpointWater temp
2016-Dec-04 04:12N 29°55' W 089°56'6 8.4
2016-Dec-04 03:27N 29°56' W 090°04'8 8.9
2016-Dec-04 02:34N 29°56' W 090°13'  
2016-Dec-01 13:33N 29°58' W 090°18'0 0.2
2016-Dec-01 11:32N 29°58' W 090°18'0 0.0
2016-Dec-01 10:26N 29°58' W 090°18'0 0.0
2016-Dec-01 09:29N 29°58' W 090°18'0 0.0
2016-Dec-01 08:14N 29°58' W 090°18'0 0.0
2016-Dec-01 07:32N 29°58' W 090°18'0 0.0
2016-Dec-01 06:32N 29°58' W 090°18'0 0.0
2016-Dec-01 05:26N 29°58' W 090°18'0 0.0
2016-Dec-01 04:32N 29°58' W 090°18'0 0.0
2016-Dec-01 03:32N 29°58' W 090°18'0 0.0
2016-Dec-01 02:32N 29°58' W 090°18'0 0.0
2016-Dec-01 01:32N 29°58' W 090°18'0 0.0
2016-Dec-01 00:14N 29°58' W 090°18'0 0.1
2016-Nov-30 23:33N 29°58' W 090°18'6 6.1
2016-Nov-30 22:33N 29°56' W 090°11'7 5.9
2016-Nov-30 21:27N 29°57' W 090°03'  

Dump ship's entire track history